Time;durP1;ratioP1;P1;durP2;ratioP2;P2;SDS_P1;SDS_P2;PMS_P1;PMS_P2;Temp;Humidity;BMP_temperature;BMP_pressure;BME280_temperature;BME280_humidity;BME280_pressure;Samples;Min_cycle;Max_cycle;Signal;HPM_P1;HPM_P2
2021/12/01 00:02:08;;;;;;;48.88;25.63;;;9.10;99.90;;;;;;5112406;28;20381;-70
2021/12/01 00:04:34;;;;;;;49.90;26.45;;;9.10;99.90;;;;;;5114493;28;20027;-69
2021/12/01 00:06:59;;;;;;;48.67;24.50;;;9.10;99.90;;;;;;5114493;28;20031;-69
2021/12/01 00:09:25;;;;;;;51.08;26.10;;;9.20;99.90;;;;;;5095704;28;20024;-69
2021/12/01 00:11:51;;;;;;;47.17;24.02;;;9.10;99.90;;;;;;5113865;28;20028;-70
2021/12/01 00:14:16;;;;;;;44.15;24.23;;;9.10;99.90;;;;;;5112619;28;20034;-70
2021/12/01 00:16:42;;;;;;;44.55;23.85;;;9.20;99.90;;;;;;5113451;28;20115;-70
2021/12/01 00:19:07;;;;;;;42.30;22.75;;;9.10;99.90;;;;;;5114356;28;20110;-69
2021/12/01 00:21:33;;;;;;;37.40;20.70;;;9.20;99.90;;;;;;5113994;28;20039;-69
2021/12/01 00:23:59;;;;;;;36.30;18.40;;;9.20;99.90;;;;;;5113806;28;20131;-70
2021/12/01 00:26:25;;;;;;;33.92;18.17;;;9.20;99.90;;;;;;5095568;28;20455;-69
2021/12/01 00:28:50;;;;;;;34.85;19.92;;;9.20;99.90;;;;;;5114303;28;20027;-70
2021/12/01 00:31:16;;;;;;;25.60;14.93;;;9.20;99.90;;;;;;5095554;28;20028;-70
2021/12/01 00:33:42;;;;;;;22.48;13.52;;;9.30;99.90;;;;;;5114284;28;20031;-70
2021/12/01 00:36:13;;;;;;;18.92;11.63;;;9.20;99.90;;;;;;5114270;28;20027;-69
2021/12/01 00:38:40;;;;;;;18.23;10.40;;;9.20;99.90;;;;;;5113661;28;20076;-70
2021/12/01 00:41:07;;;;;;;11.48;8.73;;;9.30;99.90;;;;;;5114211;28;20023;-69
2021/12/01 00:43:38;;;;;;;12.68;8.35;;;9.30;99.90;;;;;;5113800;28;20035;-69
2021/12/01 00:46:23;;;;;;;10.55;7.30;;;9.30;99.90;;;;;;5096525;28;20016;-69
2021/12/01 00:48:49;;;;;;;8.95;5.97;;;9.30;99.90;;;;;;5113255;28;20020;-69
2021/12/01 00:51:16;;;;;;;8.48;6.88;;;9.30;99.90;;;;;;5116204;28;20169;-69
2021/12/01 00:53:42;;;;;;;8.43;5.50;;;9.30;99.90;;;;;;5117374;28;20023;-69
2021/12/01 00:56:08;;;;;;;6.60;4.32;;;9.30;99.90;;;;;;5116439;28;20085;-69
2021/12/01 00:58:34;;;;;;;6.55;4.15;;;9.20;99.90;;;;;;5116862;28;20186;-69
2021/12/01 01:01:01;;;;;;;3.22;2.97;;;9.20;99.90;;;;;;5117813;28;20581;-69
2021/12/01 01:03:28;;;;;;;3.38;3.08;;;9.20;99.90;;;;;;5115831;28;20385;-70
2021/12/01 01:05:54;;;;;;;3.42;2.90;;;9.30;99.90;;;;;;5099845;28;20024;-70
2021/12/01 01:08:20;;;;;;;4.25;3.33;;;9.30;99.90;;;;;;5117360;28;20020;-70
2021/12/01 01:11:08;;;;;;;4.90;3.20;;;9.30;99.90;;;;;;5117605;28;20372;-70
2021/12/01 01:16:24;;;;;;;4.25;3.00;;;9.30;99.90;;;;;;5115726;28;20035;-70
2021/12/01 01:19:00;;;;;;;3.63;2.97;;;9.30;99.90;;;;;;5115622;28;20114;-70
2021/12/01 01:21:30;;;;;;;3.10;2.80;;;9.30;99.90;;;;;;5115592;28;20127;-70
2021/12/01 01:23:56;;;;;;;3.88;3.03;;;9.30;99.90;;;;;;5117424;28;20026;-70
2021/12/01 01:26:23;;;;;;;3.70;3.20;;;9.30;99.90;;;;;;5115499;28;20024;-68
2021/12/01 01:28:49;;;;;;;3.47;2.70;;;9.30;99.90;;;;;;5115772;28;20020;-69
2021/12/01 01:31:15;;;;;;;3.45;3.15;;;9.30;99.90;;;;;;5116267;28;20020;-70
2021/12/01 01:33:41;;;;;;;3.60;3.25;;;9.30;99.90;;;;;;5115354;28;20023;-70
2021/12/01 01:36:08;;;;;;;5.53;3.83;;;9.30;99.90;;;;;;5116156;28;20115;-70
2021/12/01 01:38:33;;;;;;;4.00;3.42;;;9.30;99.90;;;;;;5115226;28;20482;-70
2021/12/01 01:41:01;;;;;;;5.82;3.60;;;9.30;99.90;;;;;;5098593;28;20062;-70
2021/12/01 01:43:27;;;;;;;5.15;3.65;;;9.30;99.90;;;;;;5116892;28;20058;-70
2021/12/01 01:45:54;;;;;;;3.85;3.53;;;9.30;99.90;;;;;;5115484;28;20074;-70
2021/12/01 01:48:45;;;;;;;4.57;3.65;;;9.30;99.90;;;;;;5116862;28;20353;-70
2021/12/01 01:51:06;;;;;;;4.20;3.50;;;9.30;99.90;;;;;;5116158;28;20027;-70
2021/12/01 01:53:34;;;;;;;4.75;3.28;;;9.30;99.90;;;;;;5097988;28;20024;-71
2021/12/01 01:56:02;;;;;;;4.50;3.90;;;9.30;99.90;;;;;;5114884;28;20034;-70
2021/12/01 01:58:29;;;;;;;4.22;3.42;;;9.30;99.90;;;;;;5115156;28;20039;-71
2021/12/01 02:01:06;;;;;;;5.68;3.65;;;9.30;99.90;;;;;;5115386;28;20035;-70
2021/12/01 02:03:34;;;;;;;5.68;3.70;;;9.30;99.90;;;;;;5115858;28;20051;-70
2021/12/01 02:06:00;;;;;;;5.65;3.42;;;9.30;99.90;;;;;;5116257;28;20020;-71
2021/12/01 02:08:29;;;;;;;3.70;3.40;;;9.30;99.90;;;;;;5114669;28;20023;-71
2021/12/01 02:10:58;;;;;;;4.32;3.78;;;9.30;99.90;;;;;;5115337;28;20015;-70
2021/12/01 02:13:25;;;;;;;6.45;3.78;;;9.30;99.90;;;;;;5116423;28;20077;-70
2021/12/01 02:15:52;;;;;;;4.53;3.55;;;9.30;99.90;;;;;;5114910;28;20068;-70
2021/12/01 02:18:18;;;;;;;4.25;3.38;;;9.30;99.90;;;;;;5116031;28;20036;-70
2021/12/01 02:21:06;;;;;;;5.88;3.72;;;9.30;99.90;;;;;;5115315;28;20578;-71
2021/12/01 02:23:34;;;;;;;5.00;3.15;;;9.30;99.90;;;;;;5115507;28;20361;-71
2021/12/01 02:26:00;;;;;;;4.22;3.50;;;9.20;99.90;;;;;;5114968;28;20409;-71
2021/12/01 02:28:26;;;;;;;3.97;3.53;;;9.20;99.90;;;;;;5116118;28;20096;-71
2021/12/01 02:30:52;;;;;;;5.50;3.70;;;9.20;99.90;;;;;;5116069;28;20019;-70
2021/12/01 02:33:17;;;;;;;4.05;3.65;;;9.30;99.90;;;;;;5115424;28;20069;-71
2021/12/01 02:35:43;;;;;;;4.18;3.72;;;9.30;99.90;;;;;;5114140;28;20434;-70
2021/12/01 02:38:09;;;;;;;5.82;3.58;;;9.30;99.90;;;;;;5097088;28;20028;-70
2021/12/01 02:40:34;;;;;;;4.68;3.38;;;9.30;99.90;;;;;;5115880;28;20024;-70
2021/12/01 02:43:00;;;;;;;14.82;3.67;;;9.30;99.90;;;;;;5115456;28;20107;-69
2021/12/01 02:45:26;;;;;;;5.32;3.08;;;9.30;99.90;;;;;;5114517;28;20379;-69
2021/12/01 02:47:51;;;;;;;5.60;3.35;;;9.30;99.90;;;;;;5115000;28;20077;-69
2021/12/01 02:50:17;;;;;;;3.90;2.83;;;9.30;99.90;;;;;;5115685;28;20024;-69
2021/12/01 02:52:43;;;;;;;6.50;2.88;;;9.40;99.90;;;;;;5115661;28;20452;-68
2021/12/01 02:55:10;;;;;;;5.03;3.20;;;9.30;99.90;;;;;;5114139;28;20429;-69
2021/12/01 02:57:44;;;;;;;3.72;2.88;;;9.30;99.90;;;;;;5114523;28;20118;-69
2021/12/01 03:00:11;;;;;;;5.50;2.85;;;9.30;99.90;;;;;;5113665;28;20479;-69
2021/12/01 03:02:38;;;;;;;3.55;2.88;;;9.30;99.90;;;;;;5113586;28;20516;-69
2021/12/01 03:05:06;;;;;;;3.03;2.45;;;9.30;99.90;;;;;;5115465;28;20020;-69
2021/12/01 03:07:32;;;;;;;2.33;1.92;;;9.30;99.90;;;;;;5113893;28;20031;-69
2021/12/01 03:09:58;;;;;;;4.03;2.55;;;9.20;99.90;;;;;;5097037;28;20046;-69
2021/12/01 03:12:31;;;;;;;3.67;2.72;;;9.20;99.90;;;;;;5113293;28;20461;-72
2021/12/01 03:14:57;;;;;;;3.67;2.97;;;9.20;99.90;;;;;;5113837;28;20034;-71
2021/12/01 03:17:27;;;;;;;3.85;2.95;;;9.10;99.90;;;;;;5113319;28;20032;-70
2021/12/01 03:19:53;;;;;;;4.32;3.35;;;9.20;99.90;;;;;;5113327;28;20027;-71
2021/12/01 03:22:19;;;;;;;3.20;2.90;;;9.20;99.90;;;;;;5113548;28;20019;-71
2021/12/01 03:24:45;;;;;;;2.90;2.70;;;9.10;99.90;;;;;;5115043;28;20027;-71
2021/12/01 03:27:10;;;;;;;4.55;3.30;;;9.10;99.90;;;;;;5113567;28;20068;-70
2021/12/01 03:29:36;;;;;;;4.65;3.25;;;9.10;99.90;;;;;;5113523;28;20143;-71
2021/12/01 03:32:02;;;;;;;5.43;3.80;;;9.10;99.90;;;;;;5113468;28;20030;-70
2021/12/01 03:34:28;;;;;;;4.10;3.70;;;9.10;99.90;;;;;;5113690;28;20023;-70
2021/12/01 03:36:54;;;;;;;4.38;3.97;;;9.10;99.90;;;;;;5114884;28;20064;-70
2021/12/01 03:39:20;;;;;;;5.53;4.20;;;9.00;99.90;;;;;;5114233;28;20106;-71
2021/12/01 03:41:46;;;;;;;4.88;4.28;;;9.00;99.90;;;;;;5096005;28;20024;-70
2021/12/01 03:44:11;;;;;;;5.32;4.45;;;8.90;99.90;;;;;;5114728;28;20172;-70
2021/12/01 03:46:37;;;;;;;6.43;4.78;;;8.90;99.90;;;;;;5114713;28;20024;-69
2021/12/01 03:49:03;;;;;;;5.65;4.55;;;8.90;99.90;;;;;;5114683;28;20102;-69
2021/12/01 03:51:28;;;;;;;7.15;5.05;;;8.90;99.90;;;;;;5114386;28;20479;-70
2021/12/01 03:53:54;;;;;;;7.60;5.97;;;8.90;99.90;;;;;;5114639;28;20024;-70
2021/12/01 03:56:20;;;;;;;7.72;6.20;;;8.80;99.90;;;;;;5114594;28;20453;-70
2021/12/01 03:58:47;;;;;;;8.13;6.80;;;8.80;99.90;;;;;;5114611;28;20023;-69
2021/12/01 04:01:13;;;;;;;7.78;6.38;;;8.70;99.90;;;;;;5113398;28;20098;-70
2021/12/01 04:03:39;;;;;;;7.45;6.53;;;8.70;99.90;;;;;;5113822;28;20047;-70
2021/12/01 04:06:05;;;;;;;8.05;7.05;;;8.70;99.90;;;;;;5114499;28;20019;-70
2021/12/01 04:08:31;;;;;;;10.43;8.52;;;8.70;99.90;;;;;;5114480;28;20031;-69
2021/12/01 04:10:56;;;;;;;8.40;7.10;;;8.70;99.90;;;;;;5113881;28;20484;-69
2021/12/01 04:13:22;;;;;;;8.82;7.93;;;8.70;99.90;;;;;;5114432;28;20039;-69
2021/12/01 04:15:48;;;;;;;10.48;7.60;;;8.70;99.90;;;;;;5113997;28;20059;-69
2021/12/01 04:18:13;;;;;;;9.55;7.97;;;8.70;99.90;;;;;;5114358;28;20027;-69
2021/12/01 04:20:39;;;;;;;13.10;8.70;;;8.70;99.90;;;;;;5114331;28;20023;-69
2021/12/01 04:23:05;;;;;;;9.93;8.80;;;8.70;99.90;;;;;;5112389;28;20391;-68
2021/12/01 04:25:31;;;;;;;11.77;9.00;;;8.70;99.90;;;;;;5117046;28;20026;-68
2021/12/01 04:27:56;;;;;;;12.48;8.20;;;8.60;99.90;;;;;;5099945;28;20107;-69
2021/12/01 04:30:24;;;;;;;11.93;8.32;;;8.70;99.90;;;;;;5116970;28;20456;-69
2021/12/01 04:32:50;;;;;;;10.80;7.65;;;8.70;99.90;;;;;;5118362;28;20030;-69
2021/12/01 04:35:18;;;;;;;11.27;8.73;;;8.70;99.90;;;;;;5116509;28;20023;-70
2021/12/01 04:37:45;;;;;;;9.57;8.18;;;8.70;99.90;;;;;;5116833;28;20019;-68
2021/12/01 04:40:11;;;;;;;10.40;7.82;;;8.70;99.90;;;;;;5118208;28;20023;-70
2021/12/01 04:42:36;;;;;;;9.85;8.27;;;8.60;99.90;;;;;;5117804;28;20131;-70
2021/12/01 04:45:06;;;;;;;10.48;7.93;;;8.60;99.90;;;;;;5117856;28;20431;-70
2021/12/01 04:47:37;;;;;;;7.68;6.78;;;8.60;99.90;;;;;;5118079;28;20456;-73
2021/12/01 04:50:04;;;;;;;7.18;6.35;;;8.60;99.90;;;;;;5117768;28;20027;-73
2021/12/01 04:52:30;;;;;;;9.48;6.75;;;8.60;99.90;;;;;;5116152;28;20027;-72
2021/12/01 04:54:55;;;;;;;14.45;7.55;;;8.70;99.90;;;;;;5117946;28;20023;-72
2021/12/01 04:57:21;;;;;;;7.30;6.18;;;8.60;99.90;;;;;;5117905;28;20055;-72
2021/12/01 04:59:47;;;;;;;6.40;4.63;;;8.60;99.90;;;;;;5116048;28;20484;-71
2021/12/01 05:02:13;;;;;;;6.82;5.22;;;8.70;99.90;;;;;;5117411;28;20400;-70
2021/12/01 05:04:41;;;;;;;6.70;5.47;;;8.70;99.90;;;;;;5116495;28;20177;-70
2021/12/01 05:07:07;;;;;;;6.30;4.72;;;8.70;99.90;;;;;;5117175;28;20064;-70
2021/12/01 05:09:32;;;;;;;6.75;4.78;;;8.70;99.90;;;;;;5117119;28;20107;-70
2021/12/01 05:11:58;;;;;;;6.95;5.05;;;8.70;99.90;;;;;;5116186;28;20035;-70
2021/12/01 05:14:25;;;;;;;4.88;4.38;;;8.70;99.90;;;;;;5099027;28;20020;-70
2021/12/01 05:16:51;;;;;;;5.13;4.60;;;8.60;99.90;;;;;;5082451;28;20111;-70
2021/12/01 05:19:17;;;;;;;8.43;5.15;;;8.60;99.90;;;;;;5115663;28;20023;-70
2021/12/01 05:21:43;;;;;;;5.00;4.40;;;8.60;99.90;;;;;;5115894;28;20024;-70
2021/12/01 05:24:09;;;;;;;4.63;3.97;;;8.60;99.90;;;;;;5115551;28;20055;-70
2021/12/01 05:26:34;;;;;;;6.30;3.70;;;8.60;99.90;;;;;;5115884;28;20069;-70
2021/12/01 05:29:00;;;;;;;5.50;4.05;;;8.50;99.90;;;;;;5098529;28;20016;-70
2021/12/01 05:31:26;;;;;;;6.25;4.20;;;8.50;99.90;;;;;;5115809;28;20016;-71
2021/12/01 05:33:52;;;;;;;4.63;3.80;;;8.50;99.90;;;;;;5117212;28;20027;-70
2021/12/01 05:36:17;;;;;;;5.03;3.78;;;8.50;99.90;;;;;;5114820;28;20472;-69
2021/12/01 05:38:43;;;;;;;5.38;4.30;;;8.50;99.90;;;;;;5098334;28;20028;-69
2021/12/01 05:41:09;;;;;;;5.00;4.28;;;8.50;99.90;;;;;;5098257;28;20032;-69
2021/12/01 05:43:35;;;;;;;5.90;4.82;;;8.50;99.90;;;;;;5115204;28;20388;-67
2021/12/01 05:46:00;;;;;;;4.60;4.15;;;8.50;99.90;;;;;;5115776;28;20361;-68
2021/12/01 05:48:26;;;;;;;5.35;4.85;;;8.50;99.90;;;;;;5098108;28;20055;-73
2021/12/01 05:50:52;;;;;;;6.95;5.07;;;8.50;99.90;;;;;;5116832;28;20023;-72
2021/12/01 05:53:17;;;;;;;6.47;5.15;;;8.50;99.90;;;;;;5114979;28;20475;-72
2021/12/01 05:55:43;;;;;;;6.22;4.50;;;8.60;99.90;;;;;;5116788;28;20046;-72
2021/12/01 05:58:08;;;;;;;5.22;4.32;;;8.60;99.90;;;;;;5116394;28;20030;-72
2021/12/01 06:00:34;;;;;;;6.55;4.45;;;8.60;99.90;;;;;;5114914;28;20032;-72
2021/12/01 06:03:00;;;;;;;5.55;4.60;;;8.60;99.90;;;;;;5114895;28;20048;-72
2021/12/01 06:05:27;;;;;;;5.38;4.43;;;8.60;99.90;;;;;;5115589;28;20031;-71
2021/12/01 06:07:52;;;;;;;7.10;4.78;;;8.60;99.90;;;;;;5114725;28;20026;-71
2021/12/01 06:10:18;;;;;;;5.53;4.85;;;8.60;99.90;;;;;;5115230;28;20020;-71
2021/12/01 06:12:45;;;;;;;7.35;4.78;;;8.50;99.90;;;;;;5116412;28;20103;-71
2021/12/01 06:15:14;;;;;;;6.03;4.82;;;8.60;99.90;;;;;;5114844;28;20034;-71
2021/12/01 06:17:42;;;;;;;6.95;4.68;;;8.60;99.90;;;;;;5114865;28;20098;-71
2021/12/01 06:20:11;;;;;;;5.20;4.43;;;8.60;99.90;;;;;;5098166;28;20472;-71
2021/12/01 06:22:37;;;;;;;6.55;4.90;;;8.60;99.90;;;;;;5116188;28;20032;-71
2021/12/01 06:25:03;;;;;;;7.85;5.05;;;8.60;99.90;;;;;;5115038;28;20015;-71
2021/12/01 06:27:29;;;;;;;6.57;4.60;;;8.60;99.90;;;;;;5114943;28;20027;-72
2021/12/01 06:29:55;;;;;;;5.70;5.05;;;8.60;99.90;;;;;;5115860;28;20019;-70
2021/12/01 06:32:21;;;;;;;6.10;4.75;;;8.70;99.90;;;;;;5115474;28;20016;-70
2021/12/01 06:34:47;;;;;;;5.07;4.45;;;8.70;99.90;;;;;;5115447;28;20184;-72
2021/12/01 06:37:13;;;;;;;5.40;4.43;;;8.70;99.90;;;;;;5115649;28;20061;-72
2021/12/01 06:39:38;;;;;;;5.45;4.32;;;8.70;99.90;;;;;;5114089;28;20111;-71
2021/12/01 06:42:04;;;;;;;4.90;3.70;;;8.70;99.90;;;;;;5114341;28;20039;-72
2021/12/01 06:44:30;;;;;;;6.45;4.43;;;8.70;99.90;;;;;;5097853;28;20439;-72
2021/12/01 06:46:57;;;;;;;5.75;4.47;;;8.60;99.90;;;;;;5096219;28;20051;-71
2021/12/01 06:49:22;;;;;;;6.63;4.00;;;8.60;99.90;;;;;;5114462;28;20126;-70
2021/12/01 06:51:48;;;;;;;6.28;4.07;;;8.60;99.90;;;;;;5114261;28;20182;-71
2021/12/01 06:54:13;;;;;;;6.10;3.55;;;8.70;99.90;;;;;;5079819;28;20459;-70
2021/12/01 06:56:39;;;;;;;6.50;3.50;;;8.70;99.90;;;;;;5115233;28;20028;-70
2021/12/01 06:59:05;;;;;;;5.32;3.60;;;8.60;99.90;;;;;;5114497;28;20027;-70
2021/12/01 07:01:30;;;;;;;7.47;4.25;;;8.70;99.90;;;;;;5115173;28;20373;-71
2021/12/01 07:03:56;;;;;;;3.70;3.30;;;8.60;99.90;;;;;;5113311;28;20122;-71
2021/12/01 07:06:21;;;;;;;5.53;3.85;;;8.60;99.90;;;;;;5114070;28;20022;-71
2021/12/01 07:08:47;;;;;;;7.15;3.80;;;8.70;99.90;;;;;;5096813;28;20047;-71
2021/12/01 07:11:13;;;;;;;4.80;3.40;;;8.60;99.90;;;;;;5115135;28;20023;-70
2021/12/01 07:13:39;;;;;;;5.70;3.53;;;8.60;99.90;;;;;;5115135;28;20028;-71
2021/12/01 07:16:04;;;;;;;5.80;3.15;;;8.70;99.90;;;;;;5113387;28;20426;-71
2021/12/01 07:18:30;;;;;;;4.95;3.10;;;8.70;99.90;;;;;;5113621;28;20024;-69
2021/12/01 07:20:56;;;;;;;3.60;2.55;;;8.70;99.90;;;;;;5113020;28;20034;-70
2021/12/01 07:23:22;;;;;;;3.88;2.78;;;8.70;99.90;;;;;;5113328;28;20023;-70
2021/12/01 07:25:48;;;;;;;4.45;3.05;;;8.60;99.90;;;;;;5114661;28;20016;-71
2021/12/01 07:28:14;;;;;;;3.42;2.88;;;8.60;99.90;;;;;;5113164;28;20110;-71
2021/12/01 07:30:40;;;;;;;3.58;2.90;;;8.60;99.90;;;;;;5114864;28;20108;-71
2021/12/01 07:33:06;;;;;;;3.22;2.72;;;8.60;99.90;;;;;;5114606;28;20019;-71
2021/12/01 07:35:32;;;;;;;3.55;2.55;;;8.60;99.90;;;;;;5111657;28;20428;-73
2021/12/01 07:37:57;;;;;;;7.60;2.90;;;8.60;99.90;;;;;;5113380;28;20070;-71
2021/12/01 07:40:23;;;;;;;2.60;2.40;;;8.50;99.90;;;;;;5109835;28;20033;-70
2021/12/01 07:42:49;;;;;;;5.03;2.58;;;8.50;99.90;;;;;;5114008;28;20023;-71
2021/12/01 07:45:15;;;;;;;3.28;2.45;;;8.50;99.90;;;;;;5095121;28;20047;-71
2021/12/01 07:47:41;;;;;;;4.80;2.50;;;8.40;99.90;;;;;;5100564;28;20448;-70
2021/12/01 07:50:07;;;;;;;3.33;2.35;;;8.40;99.90;;;;;;5113018;28;20034;-70
2021/12/01 07:52:35;;;;;;;3.30;1.83;;;8.40;99.90;;;;;;5092959;28;20096;-70
2021/12/01 07:55:01;;;;;;;3.60;2.30;;;8.40;99.90;;;;;;5109746;28;20020;-71
2021/12/01 07:57:26;;;;;;;3.40;2.30;;;8.30;99.90;;;;;;5111735;28;20043;-71
2021/12/01 07:59:52;;;;;;;2.80;2.30;;;8.30;99.90;;;;;;5112181;28;20036;-71
2021/12/01 08:02:18;;;;;;;2.83;2.10;;;8.30;99.90;;;;;;5113543;28;20180;-71
2021/12/01 08:04:43;;;;;;;3.75;2.10;;;8.20;99.90;;;;;;5113076;28;20456;-71
2021/12/01 08:07:09;;;;;;;3.45;2.45;;;8.20;99.90;;;;;;5077757;28;20065;-71
2021/12/01 08:09:35;;;;;;;2.90;2.17;;;8.10;99.90;;;;;;5112661;28;20024;-70
2021/12/01 08:12:00;;;;;;;3.83;1.95;;;8.10;99.90;;;;;;5095418;28;20111;-71
2021/12/01 08:14:26;;;;;;;2.10;1.90;;;8.10;99.90;;;;;;5112587;28;20081;-71
2021/12/01 08:16:52;;;;;;;4.93;2.38;;;8.10;99.90;;;;;;5112789;28;20035;-71
2021/12/01 08:19:18;;;;;;;3.20;1.90;;;8.00;99.90;;;;;;5112434;28;20020;-70
2021/12/01 08:21:47;;;;;;;3.47;2.10;;;8.00;99.90;;;;;;5113591;28;20027;-70
2021/12/01 08:24:13;;;;;;;3.40;1.90;;;8.00;99.90;;;;;;5111974;28;20076;-71
2021/12/01 08:26:40;;;;;;;3.20;1.92;;;8.00;99.90;;;;;;5102694;28;20028;-71
2021/12/01 08:29:06;;;;;;;2.35;2.03;;;8.00;99.90;;;;;;5113897;28;20445;-71
2021/12/01 08:31:32;;;;;;;2.60;1.80;;;8.00;99.90;;;;;;5113106;28;20020;-70
2021/12/01 08:33:57;;;;;;;2.03;1.70;;;8.00;99.90;;;;;;5113351;28;20036;-71
2021/12/01 08:36:23;;;;;;;4.13;2.00;;;8.10;99.90;;;;;;5112135;28;20055;-71
2021/12/01 08:38:48;;;;;;;4.53;2.30;;;8.00;99.90;;;;;;5113236;28;20055;-70
2021/12/01 08:41:14;;;;;;;4.75;2.17;;;7.90;99.90;;;;;;5082285;28;20071;-70
2021/12/01 08:43:40;;;;;;;3.25;1.92;;;7.90;99.90;;;;;;5099410;28;20372;-70
2021/12/01 08:46:07;;;;;;;2.00;1.80;;;7.90;99.90;;;;;;5112620;28;20480;-70
2021/12/01 08:48:32;;;;;;;2.20;1.95;;;7.90;99.90;;;;;;5093436;28;20468;-69
2021/12/01 08:51:01;;;;;;;1.80;1.70;;;7.90;99.90;;;;;;5095093;28;20047;-69
2021/12/01 08:53:28;;;;;;;3.60;2.15;;;7.90;99.90;;;;;;5112795;28;20088;-70
2021/12/01 08:55:53;;;;;;;2.92;2.33;;;7.90;99.90;;;;;;5111469;28;20464;-69
2021/12/01 08:58:19;;;;;;;3.00;2.00;;;7.90;99.90;;;;;;5107520;28;20052;-69
2021/12/01 09:00:47;;;;;;;2.10;1.73;;;8.00;99.90;;;;;;5106116;28;20020;-70
2021/12/01 09:03:15;;;;;;;1.90;1.70;;;8.00;99.90;;;;;;5093502;28;20393;-70
2021/12/01 09:05:42;;;;;;;3.22;1.85;;;8.10;99.90;;;;;;5099273;28;20115;-70
2021/12/01 09:08:08;;;;;;;2.08;1.80;;;8.10;99.90;;;;;;5111101;28;20028;-69
2021/12/01 09:10:35;;;;;;;3.13;1.77;;;8.10;99.90;;;;;;5113711;28;20027;-70
2021/12/01 09:13:01;;;;;;;4.43;1.40;;;8.10;99.90;;;;;;5115587;28;20032;-69
2021/12/01 09:15:28;;;;;;;1.80;1.50;;;8.10;99.90;;;;;;5112924;28;20392;-69
2021/12/01 09:17:54;;;;;;;2.20;2.00;;;8.20;99.90;;;;;;5098538;28;20459;-70
2021/12/01 09:20:19;;;;;;;2.05;1.40;;;8.20;99.90;;;;;;5112187;28;20088;-69
2021/12/01 09:22:45;;;;;;;1.90;1.50;;;8.20;99.90;;;;;;5114008;28;20028;-69
2021/12/01 09:25:11;;;;;;;2.83;1.85;;;8.30;99.90;;;;;;5113389;28;20030;-69
2021/12/01 09:27:37;;;;;;;4.85;1.50;;;8.30;99.90;;;;;;5087612;28;20161;-70
2021/12/01 09:30:05;;;;;;;1.98;1.75;;;8.30;99.90;;;;;;5100124;28;20478;-70
2021/12/01 09:32:34;;;;;;;3.00;1.30;;;8.30;99.90;;;;;;5096590;28;20039;-69
2021/12/01 09:35:00;;;;;;;1.75;1.65;;;8.30;99.90;;;;;;5094189;28;20026;-70
2021/12/01 09:37:26;;;;;;;2.00;1.67;;;8.30;99.90;;;;;;5095185;28;20055;-70
2021/12/01 09:39:52;;;;;;;2.05;1.58;;;8.30;99.90;;;;;;5104343;28;20488;-70
2021/12/01 09:42:18;;;;;;;1.90;1.52;;;8.20;99.90;;;;;;5107979;28;20040;-70
2021/12/01 09:44:43;;;;;;;2.20;1.80;;;8.20;99.90;;;;;;5089459;28;20106;-70
2021/12/01 09:47:09;;;;;;;2.55;1.92;;;8.20;99.90;;;;;;5095296;28;20020;-70
2021/12/01 09:49:36;;;;;;;4.30;1.83;;;8.20;99.90;;;;;;5099775;28;20030;-70
2021/12/01 09:52:02;;;;;;;1.88;1.58;;;8.20;99.90;;;;;;5112789;28;20051;-70
2021/12/01 09:54:28;;;;;;;2.55;2.10;;;8.20;99.90;;;;;;5113810;27;20412;-70
2021/12/01 09:56:53;;;;;;;3.25;2.13;;;8.10;99.90;;;;;;5103492;28;20053;-70
2021/12/01 09:59:19;;;;;;;2.80;2.10;;;8.20;99.90;;;;;;5105898;28;20039;-70
2021/12/01 10:01:45;;;;;;;5.63;1.90;;;8.20;99.90;;;;;;5103305;28;20027;-71
2021/12/01 10:04:10;;;;;;;2.83;2.08;;;8.20;99.90;;;;;;5106241;27;20443;-70
2021/12/01 10:06:36;;;;;;;2.53;2.10;;;8.20;99.90;;;;;;5087851;28;20024;-71
2021/12/01 10:09:07;;;;;;;2.97;2.03;;;8.20;99.90;;;;;;5095998;28;20085;-70
2021/12/01 10:11:35;;;;;;;3.90;1.80;;;8.20;99.90;;;;;;5094145;28;20039;-71
2021/12/01 10:14:05;;;;;;;2.35;1.48;;;8.30;99.90;;;;;;5094364;28;20039;-70
2021/12/01 10:16:36;;;;;;;1.75;1.30;;;8.30;99.90;;;;;;5102557;28;20024;-70
2021/12/01 10:19:08;;;;;;;2.60;1.20;;;8.40;99.90;;;;;;5113638;28;20028;-69
2021/12/01 10:21:37;;;;;;;2.35;1.40;;;8.40;99.90;;;;;;5094252;28;20047;-70
2021/12/01 10:24:11;;;;;;;1.20;1.10;;;8.50;99.90;;;;;;5094566;28;20031;-69
2021/12/01 10:26:39;;;;;;;;;;;8.60;99.90;;;;;;5102669;28;20040;-70
2021/12/01 10:29:09;;;;;;;2.13;1.60;;;8.60;99.90;;;;;;5112124;28;19911;-69
2021/12/01 10:31:40;;;;;;;1.40;1.30;;;8.60;99.90;;;;;;5114273;28;20429;-69
2021/12/01 10:34:35;;;;;;;2.85;1.35;;;8.60;99.90;;;;;;5114094;28;20031;-70
2021/12/01 10:37:23;;;;;;;1.63;1.52;;;8.60;99.90;;;;;;5094798;28;20396;-70
2021/12/01 10:40:09;;;;;;;4.28;1.80;;;8.60;99.90;;;;;;5093555;28;20091;-70
2021/12/01 10:42:55;;;;;;;2.50;1.60;;;8.60;99.90;;;;;;5109991;28;20020;-70
2021/12/01 10:45:25;;;;;;;1.70;1.58;;;8.50;99.90;;;;;;5113338;28;20011;-69
2021/12/01 10:47:52;;;;;;;1.98;1.77;;;8.50;99.90;;;;;;5096208;28;20024;-70
2021/12/01 10:50:20;;;;;;;5.53;1.70;;;8.50;99.90;;;;;;5114137;28;20400;-68
2021/12/01 10:52:49;;;;;;;3.78;1.60;;;8.50;99.90;;;;;;5107027;28;20024;-70
2021/12/01 10:55:19;;;;;;;1.73;1.48;;;8.60;99.90;;;;;;5097108;28;20023;-71
2021/12/01 10:57:48;;;;;;;1.73;1.52;;;8.70;99.90;;;;;;5114161;28;20037;-71
2021/12/01 11:00:18;;;;;;;1.95;1.75;;;8.70;99.90;;;;;;5113443;28;20019;-71
2021/12/01 11:02:43;;;;;;;2.17;1.60;;;8.70;99.90;;;;;;5113295;28;20036;-71
2021/12/01 11:05:09;;;;;;;3.95;1.90;;;8.80;99.90;;;;;;5096481;28;20016;-71
2021/12/01 11:07:35;;;;;;;3.47;2.13;;;8.80;99.90;;;;;;5114144;28;20491;-71
2021/12/01 11:10:21;;;;;;;4.07;2.35;;;8.80;99.90;;;;;;5111372;28;20032;-71
2021/12/01 11:12:57;;;;;;;2.95;2.20;;;8.80;99.90;;;;;;5114842;28;20068;-71
2021/12/01 11:15:27;;;;;;;2.40;1.95;;;8.80;99.90;;;;;;5096013;28;20034;-71
2021/12/01 11:17:54;;;;;;;2.25;2.10;;;8.80;99.90;;;;;;5122033;27;20032;-71
2021/12/01 11:20:45;;;;;;;3.38;2.83;;;8.80;99.90;;;;;;5135152;27;20363;-72
2021/12/01 11:23:17;;;;;;;2.90;2.55;;;8.80;99.90;;;;;;5135475;27;20026;-71
2021/12/01 11:25:46;;;;;;;4.20;2.53;;;8.80;99.90;;;;;;5134107;27;20483;-71
2021/12/01 11:28:13;;;;;;;3.72;2.50;;;8.80;99.90;;;;;;5117581;27;20024;-71
2021/12/01 11:30:42;;;;;;;2.97;2.75;;;8.80;99.90;;;;;;5103114;28;20074;-71
2021/12/01 11:33:13;;;;;;;3.80;3.03;;;8.80;99.90;;;;;;5092556;28;20426;-71
2021/12/01 11:35:41;;;;;;;3.97;2.55;;;8.80;99.90;;;;;;5105537;27;20479;-71
2021/12/01 11:38:09;;;;;;;3.28;2.95;;;8.80;99.90;;;;;;5127487;27;20102;-71
2021/12/01 11:40:35;;;;;;;5.22;3.17;;;8.80;99.90;;;;;;5112788;28;20027;-71
2021/12/01 11:43:02;;;;;;;3.40;3.10;;;8.90;99.90;;;;;;5113479;28;20349;-71
2021/12/01 11:45:27;;;;;;;3.92;3.50;;;8.90;99.90;;;;;;5113917;28;20024;-71
2021/12/01 11:47:54;;;;;;;6.32;3.40;;;8.90;99.90;;;;;;5104613;28;20039;-71
2021/12/01 11:50:32;;;;;;;3.88;3.42;;;8.90;99.90;;;;;;5075743;28;20020;-71
2021/12/01 11:53:20;;;;;;;4.88;4.43;;;8.80;99.90;;;;;;5092481;28;20372;-71
2021/12/01 11:56:07;;;;;;;3.72;3.42;;;8.80;99.90;;;;;;5109666;27;20437;-71
2021/12/01 11:58:51;;;;;;;3.97;2.70;;;8.80;99.90;;;;;;5113823;28;20095;-72
2021/12/01 12:06:53;;;;;;;3.40;2.58;;;8.80;99.90;;;;;;5072295;28;20172;-71
2021/12/01 12:09:21;;;;;;;3.40;2.83;;;8.80;99.90;;;;;;5060881;28;20033;-71
2021/12/01 12:11:50;;;;;;;3.08;2.60;;;8.80;99.90;;;;;;5069526;28;20025;-70
2021/12/01 12:14:28;;;;;;;3.97;2.05;;;8.80;99.90;;;;;;5078917;28;20112;-71
2021/12/01 12:17:13;;;;;;;2.80;2.20;;;8.90;99.90;;;;;;5090762;28;20024;-71
2021/12/01 12:20:02;;;;;;;3.58;2.42;;;8.90;99.90;;;;;;5064985;28;20417;-71
2021/12/01 12:25:56;;;;;;;4.40;1.40;;;8.90;99.90;;;;;;5099891;28;20397;-71
2021/12/01 12:28:26;;;;;;;4.07;1.63;;;8.90;99.90;;;;;;5073851;28;20069;-71
2021/12/01 12:31:03;;;;;;;2.25;1.60;;;8.90;99.90;;;;;;5059545;28;20454;-71
2021/12/01 12:33:33;;;;;;;2.85;2.08;;;9.00;99.90;;;;;;5051797;28;20056;-71
2021/12/01 12:36:03;;;;;;;3.53;2.20;;;9.00;99.90;;;;;;5071641;28;20392;-71
2021/12/01 12:38:30;;;;;;;3.53;2.33;;;8.90;99.90;;;;;;5070681;28;20054;-71
2021/12/01 12:41:13;;;;;;;3.92;2.40;;;8.90;99.90;;;;;;5086118;28;20027;-71
2021/12/01 12:43:42;;;;;;;5.18;2.20;;;8.90;99.90;;;;;;5067361;28;20111;-72
2021/12/01 12:46:15;;;;;;;5.47;2.40;;;8.80;99.90;;;;;;5087228;28;20067;-72
2021/12/01 12:48:48;;;;;;;4.95;3.22;;;8.80;99.90;;;;;;5070321;28;20359;-72
2021/12/01 12:51:30;;;;;;;4.30;2.60;;;8.70;99.90;;;;;;5069901;28;21579;-72
2021/12/01 12:56:45;;;;;;;6.60;3.03;;;8.70;99.90;;;;;;5082535;28;20356;-70
2021/12/01 12:59:23;;;;;;;3.90;2.88;;;8.70;99.90;;;;;;5072454;28;20028;-72
2021/12/01 13:01:54;;;;;;;3.53;2.75;;;8.70;99.90;;;;;;5081880;28;20028;-71
2021/12/01 13:04:51;;;;;;;7.47;3.05;;;8.70;99.90;;;;;;5069246;28;20029;-71
2021/12/01 13:07:39;;;;;;;7.57;2.80;;;8.70;99.90;;;;;;5070452;28;20017;-72
2021/12/01 13:10:29;;;;;;;4.88;2.75;;;8.70;99.90;;;;;;5080187;28;20095;-71
2021/12/01 13:13:06;;;;;;;6.93;2.70;;;8.70;99.90;;;;;;5075987;28;20033;-71
2021/12/01 13:15:39;;;;;;;5.03;2.40;;;8.70;99.90;;;;;;5069097;28;20021;-72